Panda — PBCS — position and weather

sailwx.info

Track history (hours):
 
Tides and Currents Weather Stations Pressure Air Temp Water Temp Dewpoint Dewpoint Depression Visibility Wind Speed Wind Dir Waves Ship Positions

Panda

Last reported at 2017-Jan-23 21:10 UTC. Time now 2017-Jan-24 11:20 UTC.
Position N 56°14' W 001°39'.

Length 89 m; draft 3.1 m.

Type: Cargo ship. MMSI: 245014000.

Date/timePositionNaut miles runAvg speedWind from/ knotsBaromVisibWave heightAir tempDewpointWater temp
2017-Jan-23 21:10N 56°14' W 001°39'6 8.9
2017-Jan-23 20:32N 56°16' W 001°49'9 8.8
2017-Jan-23 19:33N 56°20' W 002°03'9 8.9
2017-Jan-23 18:33N 56°23' W 002°18'9 9.2
2017-Jan-23 17:33N 56°27' W 002°33'10 9.9
2017-Jan-23 16:33N 56°27' W 002°50'3 3.2
2017-Jan-23 15:30N 56°28' W 002°56'0 0.0
2017-Jan-23 14:30N 56°28' W 002°56'0 0.0
2017-Jan-23 13:30N 56°28' W 002°56'0 0.0
2017-Jan-23 12:30N 56°28' W 002°56'0 0.0
2017-Jan-23 11:30N 56°28' W 002°56'0 0.0
2017-Jan-23 10:30N 56°28' W 002°56'0 0.0
2017-Jan-23 09:30N 56°28' W 002°56'0 0.0
2017-Jan-23 08:30N 56°28' W 002°56'0 0.0
2017-Jan-23 07:30N 56°28' W 002°56'0 0.0
2017-Jan-23 06:30N 56°28' W 002°56'0 0.0
2017-Jan-23 05:30N 56°28' W 002°56'0 0.0
2017-Jan-23 04:30N 56°28' W 002°56'0 0.0
2017-Jan-23 03:30N 56°28' W 002°56'0 0.0
2017-Jan-23 02:24N 56°28' W 002°56'0 0.0
2017-Jan-23 01:30N 56°28' W 002°56'0 0.0
2017-Jan-23 00:30N 56°28' W 002°56'0 0.0
2017-Jan-22 23:30N 56°28' W 002°56'0 0.0
2017-Jan-22 22:30N 56°28' W 002°56'0 0.0
2017-Jan-22 21:30N 56°28' W 002°56'0 0.0
2017-Jan-22 20:30N 56°28' W 002°56'0 0.0
2017-Jan-22 19:24N 56°28' W 002°56'0 0.0
2017-Jan-22 18:24N 56°28' W 002°56'0 0.0
2017-Jan-22 17:30N 56°28' W 002°56'0 0.0
2017-Jan-22 16:30N 56°28' W 002°56'0 0.0
2017-Jan-22 15:30N 56°28' W 002°56'3 2.9
2017-Jan-22 14:34N 56°27' W 002°52'8 7.9
2017-Jan-22 13:33N 56°28' W 002°37'9 8.8
2017-Jan-22 12:33N 56°25' W 002°23'9 9.3
2017-Jan-22 11:34N 56°21' W 002°07'344 9.7
2017-Jan-21 00:06N 54°15' E 007°15'3110.3
2017-Jan-20 21:04N 54°02' E 008°03'611.3
2017-Jan-20 20:33N 54°01' E 008°13'1212.2
2017-Jan-20 19:33N 53°58' E 008°33'10 9.6
2017-Jan-20 18:34N 53°52' E 008°45'8 8.1
2017-Jan-20 17:33N 53°51' E 008°59'8 7.5
2017-Jan-20 16:33N 53°53' E 009°11'7 7.2
2017-Jan-20 15:34N 53°49' E 009°22'10 9.8
2017-Jan-20 14:33N 53°41' E 009°30'1110.8
2017-Jan-20 13:33N 53°34' E 009°44'9 9.0
2017-Jan-20 12:33N 53°30' E 009°58'0 0.0
2017-Jan-20 11:31N 53°30' E 009°58'0 0.0
2017-Jan-20 10:31N 53°30' E 009°58'0 0.0
2017-Jan-20 09:31N 53°30' E 009°58'0 0.0
2017-Jan-20 08:31N 53°30' E 009°58'0 0.0
2017-Jan-20 07:31N 53°30' E 009°58'0 0.0
2017-Jan-20 06:31N 53°30' E 009°58'0 0.0
2017-Jan-20 05:31N 53°30' E 009°58'0 0.0
2017-Jan-20 04:31N 53°30' E 009°58'0 0.0
2017-Jan-20 03:31N 53°30' E 009°58'0 0.0
2017-Jan-20 02:31N 53°30' E 009°58'0 0.0
2017-Jan-20 01:31N 53°30' E 009°58'0 0.0
2017-Jan-20 00:31N 53°30' E 009°58'0 0.0
2017-Jan-19 23:31N 53°30' E 009°58'0 0.0
2017-Jan-19 22:31N 53°30' E 009°58'0 0.0
2017-Jan-19 21:31N 53°30' E 009°58'0 0.0
2017-Jan-19 20:31N 53°30' E 009°58'0 0.0
2017-Jan-19 19:31N 53°30' E 009°58'0 0.0
2017-Jan-19 18:28N 53°30' E 009°58'0 0.0
2017-Jan-19 17:31N 53°30' E 009°58'0 0.0
2017-Jan-19 16:31N 53°30' E 009°58'0 0.0
2017-Jan-19 15:28N 53°30' E 009°58'0 0.0
2017-Jan-19 14:33N 53°30' E 009°58'5 4.9
2017-Jan-19 13:33N 53°33' E 009°51'9 9.2
2017-Jan-19 12:33N 53°36' E 009°36'9 8.9
2017-Jan-19 11:34N 53°43' E 009°28'8 8.5
2017-Jan-19 10:33N 53°50' E 009°20'8 7.8
2017-Jan-19 09:34N 53°53' E 009°08'8 8.1
2017-Jan-19 08:33N 53°50' E 008°54'8 7.6
2017-Jan-19 07:33N 53°53' E 008°42'8 8.4
2017-Jan-19 06:33N 53°58' E 008°31'10 9.9
2017-Jan-19 05:33N 53°59' E 008°14'1010.0
2017-Jan-19 04:33N 53°58' E 007°58'1110.4
2017-Jan-19 03:30N 53°57' E 007°39'1010.1
2017-Jan-19 02:33N 54°05' E 007°31'11 9.8
2017-Jan-19 01:24N 54°14' E 007°19'2111.5
2017-Jan-18 23:33N 54°14' E 006°42'2710.8
2017-Jan-18 21:05N 54°13' E 005°57'510.0
2017-Jan-18 20:32N 54°13' E 005°47'10 9.8
2017-Jan-18 19:33N 54°15' E 005°31'10 9.5
2017-Jan-18 18:33N 54°17' E 005°15'22510.2
2017-Jan-17 20:34N 55°00' W 001°06'1110.6
2017-Jan-17 19:34N 55°01' W 001°24'4 0.1
2017-Jan-16 08:33N 54°59' W 001°30'5 4.6
2017-Jan-16 07:33N 55°01' W 001°23'1 1.0
2017-Jan-16 06:31N 55°02' W 001°22'0 0.0
2017-Jan-16 05:31N 55°02' W 001°22'0 0.0
2017-Jan-16 04:31N 55°02' W 001°22'0 0.0
2017-Jan-16 03:31N 55°02' W 001°22'0 0.0
2017-Jan-16 02:31N 55°02' W 001°22'0 0.1
2017-Jan-16 01:31N 55°02' W 001°22'0 0.1
2017-Jan-16 00:31N 55°02' W 001°22'0 0.0
2017-Jan-15 23:31N 55°02' W 001°22'0 0.0
2017-Jan-15 22:31N 55°02' W 001°22'3 3.0
2017-Jan-15 21:33N 55°00' W 001°19'4210.3
2017-Jan-15 17:32N 54°29' W 000°30'9 8.9
2017-Jan-15 16:33N 54°22' W 000°21'10 9.5
2017-Jan-15 15:33N 54°15' W 000°11'1010.0
2017-Jan-15 14:33N 54°07' W 000°00'6811.0
2017-Jan-15 08:24N 53°14' E 001°10'7 8.6
2017-Jan-15 07:33N 53°08' E 001°18'9 9.1
2017-Jan-15 06:33N 53°02' E 001°29'1111.3
2017-Jan-15 05:33N 52°53' E 001°41'83 9.0
2017-Jan-14 20:20N 52°07' E 003°35'6 7.5
2017-Jan-14 19:33N 52°05' E 003°44'8 8.1
2017-Jan-14 18:33N 52°02' E 003°56'9 9.1
2017-Jan-14 17:33N 51°58' E 004°09'9 8.9
2017-Jan-14 16:33N 51°52' E 004°20'8 7.8
2017-Jan-14 15:33N 51°50' E 004°33'8 8.2
2017-Jan-14 14:33N 51°42' E 004°36'1 0.7
2017-Jan-14 13:32N 51°41' E 004°36'0 0.0
2017-Jan-14 12:31N 51°41' E 004°36'0 0.0
2017-Jan-14 11:32N 51°41' E 004°36'0 0.0
2017-Jan-14 10:29N 51°41' E 004°36'0 0.0
2017-Jan-14 09:29N 51°41' E 004°36'0 0.0
2017-Jan-14 08:31N 51°41' E 004°36'0 0.0
2017-Jan-14 07:31N 51°41' E 004°36'0 0.0
2017-Jan-14 06:31N 51°41' E 004°36'0 0.0
2017-Jan-14 05:16N 51°41' E 004°36'  
Track history (hours):
 
Tides and Currents Weather Stations Pressure Air Temp Water Temp Dewpoint Dewpoint Depression Visibility Wind Speed Wind Dir Waves Ship Positions

Panda

Last reported at 2017-Jan-23 21:10 UTC. Time now 2017-Jan-24 11:20 UTC.
Position N 56°14' W 001°39'.

Length 89 m; draft 3.1 m.

Type: Cargo ship. MMSI: 245014000.

Date/timePositionNaut miles runAvg speedWind from/ knotsBaromVisibWave heightAir tempDewpointWater temp
2017-Jan-23 21:10N 56°14' W 001°39'6 8.9
2017-Jan-23 20:32N 56°16' W 001°49'9 8.8
2017-Jan-23 19:33N 56°20' W 002°03'9 8.9
2017-Jan-23 18:33N 56°23' W 002°18'9 9.2
2017-Jan-23 17:33N 56°27' W 002°33'10 9.9
2017-Jan-23 16:33N 56°27' W 002°50'3 3.2
2017-Jan-23 15:30N 56°28' W 002°56'0 0.0
2017-Jan-23 14:30N 56°28' W 002°56'0 0.0
2017-Jan-23 13:30N 56°28' W 002°56'0 0.0
2017-Jan-23 12:30N 56°28' W 002°56'0 0.0
2017-Jan-23 11:30N 56°28' W 002°56'0 0.0
2017-Jan-23 10:30N 56°28' W 002°56'0 0.0
2017-Jan-23 09:30N 56°28' W 002°56'0 0.0
2017-Jan-23 08:30N 56°28' W 002°56'0 0.0
2017-Jan-23 07:30N 56°28' W 002°56'0 0.0
2017-Jan-23 06:30N 56°28' W 002°56'0 0.0
2017-Jan-23 05:30N 56°28' W 002°56'0 0.0
2017-Jan-23 04:30N 56°28' W 002°56'0 0.0
2017-Jan-23 03:30N 56°28' W 002°56'0 0.0
2017-Jan-23 02:24N 56°28' W 002°56'0 0.0
2017-Jan-23 01:30N 56°28' W 002°56'0 0.0
2017-Jan-23 00:30N 56°28' W 002°56'0 0.0
2017-Jan-22 23:30N 56°28' W 002°56'0 0.0
2017-Jan-22 22:30N 56°28' W 002°56'0 0.0
2017-Jan-22 21:30N 56°28' W 002°56'0 0.0
2017-Jan-22 20:30N 56°28' W 002°56'0 0.0
2017-Jan-22 19:24N 56°28' W 002°56'0 0.0
2017-Jan-22 18:24N 56°28' W 002°56'0 0.0
2017-Jan-22 17:30N 56°28' W 002°56'0 0.0
2017-Jan-22 16:30N 56°28' W 002°56'0 0.0
2017-Jan-22 15:30N 56°28' W 002°56'3 2.9
2017-Jan-22 14:34N 56°27' W 002°52'8 7.9
2017-Jan-22 13:33N 56°28' W 002°37'9 8.8
2017-Jan-22 12:33N 56°25' W 002°23'9 9.3
2017-Jan-22 11:34N 56°21' W 002°07'344 9.7
2017-Jan-21 00:06N 54°15' E 007°15'3110.3
2017-Jan-20 21:04N 54°02' E 008°03'611.3
2017-Jan-20 20:33N 54°01' E 008°13'1212.2
2017-Jan-20 19:33N 53°58' E 008°33'10 9.6
2017-Jan-20 18:34N 53°52' E 008°45'8 8.1
2017-Jan-20 17:33N 53°51' E 008°59'8 7.5
2017-Jan-20 16:33N 53°53' E 009°11'7 7.2
2017-Jan-20 15:34N 53°49' E 009°22'10 9.8
2017-Jan-20 14:33N 53°41' E 009°30'1110.8
2017-Jan-20 13:33N 53°34' E 009°44'9 9.0
2017-Jan-20 12:33N 53°30' E 009°58'0 0.0
2017-Jan-20 11:31N 53°30' E 009°58'0 0.0
2017-Jan-20 10:31N 53°30' E 009°58'0 0.0
2017-Jan-20 09:31N 53°30' E 009°58'0 0.0
2017-Jan-20 08:31N 53°30' E 009°58'0 0.0
2017-Jan-20 07:31N 53°30' E 009°58'0 0.0
2017-Jan-20 06:31N 53°30' E 009°58'0 0.0
2017-Jan-20 05:31N 53°30' E 009°58'0 0.0
2017-Jan-20 04:31N 53°30' E 009°58'0 0.0
2017-Jan-20 03:31N 53°30' E 009°58'0 0.0
2017-Jan-20 02:31N 53°30' E 009°58'0 0.0
2017-Jan-20 01:31N 53°30' E 009°58'0 0.0
2017-Jan-20 00:31N 53°30' E 009°58'0 0.0
2017-Jan-19 23:31N 53°30' E 009°58'0 0.0
2017-Jan-19 22:31N 53°30' E 009°58'0 0.0
2017-Jan-19 21:31N 53°30' E 009°58'0 0.0
2017-Jan-19 20:31N 53°30' E 009°58'0 0.0
2017-Jan-19 19:31N 53°30' E 009°58'0 0.0
2017-Jan-19 18:28N 53°30' E 009°58'0 0.0
2017-Jan-19 17:31N 53°30' E 009°58'0 0.0
2017-Jan-19 16:31N 53°30' E 009°58'0 0.0
2017-Jan-19 15:28N 53°30' E 009°58'0 0.0
2017-Jan-19 14:33N 53°30' E 009°58'5 4.9
2017-Jan-19 13:33N 53°33' E 009°51'9 9.2
2017-Jan-19 12:33N 53°36' E 009°36'9 8.9
2017-Jan-19 11:34N 53°43' E 009°28'8 8.5
2017-Jan-19 10:33N 53°50' E 009°20'8 7.8
2017-Jan-19 09:34N 53°53' E 009°08'8 8.1
2017-Jan-19 08:33N 53°50' E 008°54'8 7.6
2017-Jan-19 07:33N 53°53' E 008°42'8 8.4
2017-Jan-19 06:33N 53°58' E 008°31'10 9.9
2017-Jan-19 05:33N 53°59' E 008°14'1010.0
2017-Jan-19 04:33N 53°58' E 007°58'1110.4
2017-Jan-19 03:30N 53°57' E 007°39'1010.1
2017-Jan-19 02:33N 54°05' E 007°31'11 9.8
2017-Jan-19 01:24N 54°14' E 007°19'2111.5
2017-Jan-18 23:33N 54°14' E 006°42'2710.8
2017-Jan-18 21:05N 54°13' E 005°57'510.0
2017-Jan-18 20:32N 54°13' E 005°47'10 9.8
2017-Jan-18 19:33N 54°15' E 005°31'10 9.5
2017-Jan-18 18:33N 54°17' E 005°15'22510.2
2017-Jan-17 20:34N 55°00' W 001°06'1110.6
2017-Jan-17 19:34N 55°01' W 001°24'4 0.1
2017-Jan-16 08:33N 54°59' W 001°30'5 4.6
2017-Jan-16 07:33N 55°01' W 001°23'1 1.0
2017-Jan-16 06:31N 55°02' W 001°22'0 0.0
2017-Jan-16 05:31N 55°02' W 001°22'0 0.0
2017-Jan-16 04:31N 55°02' W 001°22'0 0.0
2017-Jan-16 03:31N 55°02' W 001°22'0 0.0
2017-Jan-16 02:31N 55°02' W 001°22'0 0.1
2017-Jan-16 01:31N 55°02' W 001°22'0 0.1
2017-Jan-16 00:31N 55°02' W 001°22'0 0.0
2017-Jan-15 23:31N 55°02' W 001°22'0 0.0
2017-Jan-15 22:31N 55°02' W 001°22'3 3.0
2017-Jan-15 21:33N 55°00' W 001°19'4210.3
2017-Jan-15 17:32N 54°29' W 000°30'9 8.9
2017-Jan-15 16:33N 54°22' W 000°21'10 9.5
2017-Jan-15 15:33N 54°15' W 000°11'1010.0
2017-Jan-15 14:33N 54°07' W 000°00'6811.0
2017-Jan-15 08:24N 53°14' E 001°10'7 8.6
2017-Jan-15 07:33N 53°08' E 001°18'9 9.1
2017-Jan-15 06:33N 53°02' E 001°29'1111.3
2017-Jan-15 05:33N 52°53' E 001°41'83 9.0
2017-Jan-14 20:20N 52°07' E 003°35'6 7.5
2017-Jan-14 19:33N 52°05' E 003°44'8 8.1
2017-Jan-14 18:33N 52°02' E 003°56'9 9.1
2017-Jan-14 17:33N 51°58' E 004°09'9 8.9
2017-Jan-14 16:33N 51°52' E 004°20'8 7.8
2017-Jan-14 15:33N 51°50' E 004°33'8 8.2
2017-Jan-14 14:33N 51°42' E 004°36'1 0.7
2017-Jan-14 13:32N 51°41' E 004°36'0 0.0
2017-Jan-14 12:31N 51°41' E 004°36'0 0.0
2017-Jan-14 11:32N 51°41' E 004°36'0 0.0
2017-Jan-14 10:29N 51°41' E 004°36'0 0.0
2017-Jan-14 09:29N 51°41' E 004°36'0 0.0
2017-Jan-14 08:31N 51°41' E 004°36'0 0.0
2017-Jan-14 07:31N 51°41' E 004°36'0 0.0
2017-Jan-14 06:31N 51°41' E 004°36'0 0.0
2017-Jan-14 05:16N 51°41' E 004°36'  

Dump ship's entire track history